sensor_id;sensor_type;location;lat;lon;timestamp;pressure;altitude;pressure_sealevel;temperature;humidity
69751;BME280;57335;52.288;6.056;2023-04-01T00:01:41;99072.31;;;9.58;100.00
69751;BME280;57335;52.288;6.056;2023-04-01T00:04:07;99053.41;;;9.51;100.00
69751;BME280;57335;52.288;6.056;2023-04-01T00:06:34;99055.06;;;9.57;100.00
69751;BME280;57335;52.288;6.056;2023-04-01T00:09:00;99054.22;;;9.51;100.00
69751;BME280;57335;52.288;6.056;2023-04-01T00:11:27;99063.69;;;9.57;100.00
69751;BME280;57335;52.288;6.056;2023-04-01T00:13:53;99059.19;;;9.53;100.00
69751;BME280;57335;52.288;6.056;2023-04-01T00:16:20;99059.97;;;9.53;100.00
69751;BME280;57335;52.288;6.056;2023-04-01T00:18:49;99068.91;;;9.57;100.00
69751;BME280;57335;52.288;6.056;2023-04-01T00:21:16;99061.81;;;9.53;100.00
69751;BME280;57335;52.288;6.056;2023-04-01T00:23:43;99067.81;;;9.53;100.00
69751;BME280;57335;52.288;6.056;2023-04-01T00:26:09;99062.25;;;9.45;100.00
69751;BME280;57335;52.288;6.056;2023-04-01T00:28:36;99065.94;;;9.49;100.00
69751;BME280;57335;52.288;6.056;2023-04-01T00:31:08;99060.16;;;9.47;100.00
69751;BME280;57335;52.288;6.056;2023-04-01T00:33:35;99072.75;;;9.50;100.00
69751;BME280;57335;52.288;6.056;2023-04-01T00:36:10;99070.44;;;9.53;100.00
69751;BME280;57335;52.288;6.056;2023-04-01T00:38:38;99068.91;;;9.57;100.00
69751;BME280;57335;52.288;6.056;2023-04-01T00:41:05;99066.25;;;9.52;100.00
69751;BME280;57335;52.288;6.056;2023-04-01T00:43:32;99070.22;;;9.55;100.00
69751;BME280;57335;52.288;6.056;2023-04-01T00:45:59;99072.28;;;9.53;100.00
69751;BME280;57335;52.288;6.056;2023-04-01T00:48:32;99061.25;;;9.51;100.00
69751;BME280;57335;52.288;6.056;2023-04-01T00:51:03;99066.25;;;9.52;100.00
69751;BME280;57335;52.288;6.056;2023-04-01T00:53:33;99053.88;;;9.48;100.00
69751;BME280;57335;52.288;6.056;2023-04-01T00:56:04;99070.44;;;9.53;100.00
69751;BME280;57335;52.288;6.056;2023-04-01T00:58:36;99067.91;;;9.58;100.00
69751;BME280;57335;52.288;6.056;2023-04-01T01:01:05;99081.22;;;9.57;100.00
69751;BME280;57335;52.288;6.056;2023-04-01T01:03:32;99066.00;;;9.54;100.00
69751;BME280;57335;52.288;6.056;2023-04-01T01:11:35;99070.81;;;9.62;100.00
69751;BME280;57335;52.288;6.056;2023-04-01T01:15:30;99082.66;;;9.70;100.00
69751;BME280;57335;52.288;6.056;2023-04-01T01:17:48;99081.84;;;9.64;100.00
69751;BME280;57335;52.288;6.056;2023-04-01T01:23:28;99075.00;;;9.63;100.00
69751;BME280;57335;52.288;6.056;2023-04-01T01:29:16;99082.97;;;9.73;100.00
69751;BME280;57335;52.288;6.056;2023-04-01T01:32:00;99087.19;;;9.74;100.00
69751;BME280;57335;52.288;6.056;2023-04-01T01:37:30;99074.81;;;9.70;100.00
69751;BME280;57335;52.288;6.056;2023-04-01T01:40:05;99085.06;;;9.71;100.00
69751;BME280;57335;52.288;6.056;2023-04-01T01:42:36;99088.63;;;9.65;100.00
69751;BME280;57335;52.288;6.056;2023-04-01T01:45:05;99081.84;;;9.64;100.00
69751;BME280;57335;52.288;6.056;2023-04-01T01:47:33;99083.09;;;9.62;100.00
69751;BME280;57335;52.288;6.056;2023-04-01T01:50:02;99084.38;;;9.59;100.00
69751;BME280;57335;52.288;6.056;2023-04-01T01:52:29;99088.88;;;9.64;100.00
69751;BME280;57335;52.288;6.056;2023-04-01T01:54:57;99082.53;;;9.59;100.00
69751;BME280;57335;52.288;6.056;2023-04-01T01:57:31;99086.88;;;9.49;100.00
69751;BME280;57335;52.288;6.056;2023-04-01T02:00:05;99106.63;;;9.62;100.00
69751;BME280;57335;52.288;6.056;2023-04-01T02:02:32;99099.88;;;9.66;100.00
69751;BME280;57335;52.288;6.056;2023-04-01T02:04:59;99089.59;;;9.59;100.00
69751;BME280;57335;52.288;6.056;2023-04-01T02:07:31;99091.69;;;9.57;100.00
69751;BME280;57335;52.288;6.056;2023-04-01T02:09:59;99105.94;;;9.66;100.00
69751;BME280;57335;52.288;6.056;2023-04-01T02:12:26;99101.63;;;9.60;100.00
69751;BME280;57335;52.288;6.056;2023-04-01T02:15:03;99102.19;;;9.62;100.00
69751;BME280;57335;52.288;6.056;2023-04-01T02:17:32;99119.28;;;9.70;100.00
69751;BME280;57335;52.288;6.056;2023-04-01T02:20:04;99108.00;;;9.64;100.00
69751;BME280;57335;52.288;6.056;2023-04-01T02:22:40;99116.69;;;9.70;100.00
69751;BME280;57335;52.288;6.056;2023-04-01T02:25:11;99110.84;;;9.63;100.00
69751;BME280;57335;52.288;6.056;2023-04-01T02:27:39;99125.25;;;9.65;100.00
69751;BME280;57335;52.288;6.056;2023-04-01T02:30:07;99115.84;;;9.64;100.00
69751;BME280;57335;52.288;6.056;2023-04-01T02:32:35;99114.31;;;9.68;100.00
69751;BME280;57335;52.288;6.056;2023-04-01T02:35:03;99119.38;;;9.75;100.00
69751;BME280;57335;52.288;6.056;2023-04-01T02:37:30;99110.34;;;9.66;100.00
69751;BME280;57335;52.288;6.056;2023-04-01T02:40:04;99134.88;;;9.82;100.00
69751;BME280;57335;52.288;6.056;2023-04-01T02:42:34;99114.88;;;9.70;100.00
69751;BME280;57335;52.288;6.056;2023-04-01T02:45:01;99131.25;;;9.83;100.00
69751;BME280;57335;52.288;6.056;2023-04-01T02:47:27;99135.97;;;9.86;100.00
69751;BME280;57335;52.288;6.056;2023-04-01T02:49:54;99135.19;;;9.85;100.00
69751;BME280;57335;52.288;6.056;2023-04-01T02:52:20;99127.53;;;9.78;100.00
69751;BME280;57335;52.288;6.056;2023-04-01T02:54:46;99124.38;;;9.76;100.00
69751;BME280;57335;52.288;6.056;2023-04-01T02:57:13;99123.31;;;9.77;100.00
69751;BME280;57335;52.288;6.056;2023-04-01T02:59:39;99130.16;;;9.78;100.00
69751;BME280;57335;52.288;6.056;2023-04-01T03:02:06;99123.81;;;9.74;100.00
69751;BME280;57335;52.288;6.056;2023-04-01T03:04:32;99146.63;;;9.79;100.00
69751;BME280;57335;52.288;6.056;2023-04-01T03:06:58;99130.56;;;9.70;100.00
69751;BME280;57335;52.288;6.056;2023-04-01T03:09:25;99146.63;;;9.79;100.00
69751;BME280;57335;52.288;6.056;2023-04-01T03:11:51;99137.38;;;9.71;100.00
69751;BME280;57335;52.288;6.056;2023-04-01T03:14:18;99144.66;;;9.69;100.00
69751;BME280;57335;52.288;6.056;2023-04-01T03:16:44;99145.22;;;9.71;100.00
69751;BME280;57335;52.288;6.056;2023-04-01T03:19:10;99155.22;;;9.74;100.00
69751;BME280;57335;52.288;6.056;2023-04-01T03:21:37;99149.44;;;9.72;100.00
69751;BME280;57335;52.288;6.056;2023-04-01T03:24:04;99161.47;;;9.73;100.00
69751;BME280;57335;52.288;6.056;2023-04-01T03:26:30;99163.06;;;9.74;100.00
69751;BME280;57335;52.288;6.056;2023-04-01T03:28:56;99135.09;;;9.58;100.00
69751;BME280;57335;52.288;6.056;2023-04-01T03:31:23;99160.13;;;9.71;100.00
69751;BME280;57335;52.288;6.056;2023-04-01T03:33:50;99169.81;;;9.70;100.00
69751;BME280;57335;52.288;6.056;2023-04-01T03:36:17;99164.56;;;9.70;100.00
69751;BME280;57335;52.288;6.056;2023-04-01T03:38:44;99158.16;;;9.61;100.00
69751;BME280;57335;52.288;6.056;2023-04-01T03:41:15;99169.41;;;9.62;100.00
69751;BME280;57335;52.288;6.056;2023-04-01T03:43:43;99160.13;;;9.54;100.00
69751;BME280;57335;52.288;6.056;2023-04-01T03:46:09;99165.13;;;9.55;100.00
69751;BME280;57335;52.288;6.056;2023-04-01T03:48:36;99169.03;;;9.53;100.00
69751;BME280;57335;52.288;6.056;2023-04-01T03:51:06;99172.75;;;9.57;100.00
69751;BME280;57335;52.288;6.056;2023-04-01T03:53:33;99175.22;;;9.47;100.00
69751;BME280;57335;52.288;6.056;2023-04-01T03:56:04;99165.78;;;9.46;100.00
69751;BME280;57335;52.288;6.056;2023-04-01T03:58:30;99183.13;;;9.52;100.00
69751;BME280;57335;52.288;6.056;2023-04-01T04:00:57;99166.72;;;9.39;100.00
69751;BME280;57335;52.288;6.056;2023-04-01T04:03:23;99181.25;;;9.47;100.00
69751;BME280;57335;52.288;6.056;2023-04-01T04:05:50;99180.50;;;9.52;100.00
69751;BME280;57335;52.288;6.056;2023-04-01T04:08:17;99185.50;;;9.53;100.00
69751;BME280;57335;52.288;6.056;2023-04-01T04:10:43;99185.19;;;9.50;100.00
69751;BME280;57335;52.288;6.056;2023-04-01T04:13:09;99184.50;;;9.54;100.00
69751;BME280;57335;52.288;6.056;2023-04-01T04:15:36;99179.50;;;9.53;100.00
69751;BME280;57335;52.288;6.056;2023-04-01T04:18:02;99185.28;;;9.55;100.00
69751;BME280;57335;52.288;6.056;2023-04-01T04:20:29;99193.91;;;9.55;100.00
69751;BME280;57335;52.288;6.056;2023-04-01T04:22:55;99193.34;;;9.53;100.00
69751;BME280;57335;52.288;6.056;2023-04-01T04:25:21;99187.25;;;9.48;100.00
69751;BME280;57335;52.288;6.056;2023-04-01T04:27:48;99197.25;;;9.51;100.00
69751;BME280;57335;52.288;6.056;2023-04-01T04:30:16;99187.25;;;9.48;100.00
69751;BME280;57335;52.288;6.056;2023-04-01T04:32:42;99194.63;;;9.51;100.00
69751;BME280;57335;52.288;6.056;2023-04-01T04:35:08;99207.53;;;9.57;100.00
69751;BME280;57335;52.288;6.056;2023-04-01T04:37:35;99204.03;;;9.52;100.00
69751;BME280;57335;52.288;6.056;2023-04-01T04:40:01;99206.91;;;9.50;100.00
69751;BME280;57335;52.288;6.056;2023-04-01T04:42:27;99213.25;;;9.54;100.00
69751;BME280;57335;52.288;6.056;2023-04-01T04:44:54;99221.41;;;9.58;100.00
69751;BME280;57335;52.288;6.056;2023-04-01T04:47:20;99214.50;;;9.52;100.00
69751;BME280;57335;52.288;6.056;2023-04-01T04:49:47;99211.34;;;9.50;100.00
69751;BME280;57335;52.288;6.056;2023-04-01T04:52:13;99221.34;;;9.53;100.00
69751;BME280;57335;52.288;6.056;2023-04-01T04:54:40;99219.28;;;9.55;100.00
69751;BME280;57335;52.288;6.056;2023-04-01T04:57:06;99210.22;;;9.46;100.00
69751;BME280;57335;52.288;6.056;2023-04-01T04:59:32;99224.50;;;9.55;100.00
69751;BME280;57335;52.288;6.056;2023-04-01T05:01:59;99217.66;;;9.54;100.00
69751;BME280;57335;52.288;6.056;2023-04-01T05:04:25;99229.72;;;9.55;100.00
69751;BME280;57335;52.288;6.056;2023-04-01T05:06:52;99224.50;;;9.55;100.00
69751;BME280;57335;52.288;6.056;2023-04-01T05:09:18;99243.44;;;9.62;100.00
69751;BME280;57335;52.288;6.056;2023-04-01T05:11:44;99237.63;;;9.60;100.00
69751;BME280;57335;52.288;6.056;2023-04-01T05:14:14;99245.25;;;9.62;100.00
69751;BME280;57335;52.288;6.056;2023-04-01T05:16:41;99232.66;;;9.58;100.00
69751;BME280;57335;52.288;6.056;2023-04-01T05:19:08;99248.75;;;9.67;100.00
69751;BME280;57335;52.288;6.056;2023-04-01T05:21:34;99247.63;;;9.63;100.00
69751;BME280;57335;52.288;6.056;2023-04-01T05:24:01;99247.88;;;9.62;100.00
69751;BME280;57335;52.288;6.056;2023-04-01T05:26:27;99245.47;;;9.60;100.00
69751;BME280;57335;52.288;6.056;2023-04-01T05:28:53;99256.03;;;9.65;100.00
69751;BME280;57335;52.288;6.056;2023-04-01T05:31:20;99257.09;;;9.64;100.00
69751;BME280;57335;52.288;6.056;2023-04-01T05:33:46;99263.97;;;9.70;100.00
69751;BME280;57335;52.288;6.056;2023-04-01T05:36:15;99261.59;;;9.69;100.00
69751;BME280;57335;52.288;6.056;2023-04-01T05:38:42;99256.03;;;9.65;100.00
69751;BME280;57335;52.288;6.056;2023-04-01T05:41:09;99281.34;;;9.76;100.00
69751;BME280;57335;52.288;6.056;2023-04-01T05:43:36;99287.13;;;9.78;100.00
69751;BME280;57335;52.288;6.056;2023-04-01T05:46:03;99271.34;;;9.73;100.00
69751;BME280;57335;52.288;6.056;2023-04-01T05:48:29;99282.66;;;9.79;100.00
69751;BME280;57335;52.288;6.056;2023-04-01T05:50:55;99283.13;;;9.76;100.00
69751;BME280;57335;52.288;6.056;2023-04-01T05:53:22;99295.81;;;9.84;100.00
69751;BME280;57335;52.288;6.056;2023-04-01T05:55:49;99299.00;;;9.86;100.00
69751;BME280;57335;52.288;6.056;2023-04-01T05:58:16;99295.03;;;9.84;100.00
69751;BME280;57335;52.288;6.056;2023-04-01T06:00:42;99305.91;;;9.92;100.00
69751;BME280;57335;52.288;6.056;2023-04-01T06:03:09;99300.13;;;9.90;100.00
69751;BME280;57335;52.288;6.056;2023-04-01T06:05:40;99309.91;;;10.00;100.00
69751;BME280;57335;52.288;6.056;2023-04-01T06:08:15;99297.78;;;9.94;100.00
69751;BME280;57335;52.288;6.056;2023-04-01T06:13:38;99311.50;;;10.01;100.00
69751;BME280;57335;52.288;6.056;2023-04-01T06:22:21;99326.91;;;10.14;100.00
69751;BME280;57335;52.288;6.056;2023-04-01T06:25:16;99327.69;;;10.15;100.00
69751;BME280;57335;52.288;6.056;2023-04-01T06:28:05;99334.97;;;10.13;100.00
69751;BME280;57335;52.288;6.056;2023-04-01T06:30:47;99341.50;;;10.10;100.00
69751;BME280;57335;52.288;6.056;2023-04-01T06:33:35;99344.03;;;10.05;100.00
69751;BME280;57335;52.288;6.056;2023-04-01T06:36:36;99353.22;;;10.08;100.00
69751;BME280;57335;52.288;6.056;2023-04-01T06:42:21;99354.19;;;10.02;100.00
69751;BME280;57335;52.288;6.056;2023-04-01T06:44:55;99356.56;;;10.03;100.00
69751;BME280;57335;52.288;6.056;2023-04-01T06:47:49;99362.81;;;10.02;100.00
69751;BME280;57335;52.288;6.056;2023-04-01T06:53:14;99365.91;;;9.99;100.00
69751;BME280;57335;52.288;6.056;2023-04-01T06:55:51;99381.47;;;10.06;100.00
69751;BME280;57335;52.288;6.056;2023-04-01T06:58:25;99382.25;;;10.06;100.00
69751;BME280;57335;52.288;6.056;2023-04-01T07:00:57;99378.53;;;10.02;100.00
69751;BME280;57335;52.288;6.056;2023-04-01T07:06:09;99385.44;;;10.08;100.00
69751;BME280;57335;52.288;6.056;2023-04-01T07:08:40;99388.63;;;10.10;100.00
69751;BME280;57335;52.288;6.056;2023-04-01T07:11:19;99369.88;;;10.02;100.00
69751;BME280;57335;52.288;6.056;2023-04-01T07:13:55;99398.44;;;10.20;100.00
69751;BME280;57335;52.288;6.056;2023-04-01T07:16:36;99404.47;;;10.21;100.00
69751;BME280;57335;52.288;6.056;2023-04-01T07:19:18;99404.47;;;10.21;100.00
69751;BME280;57335;52.288;6.056;2023-04-01T07:21:49;99408.44;;;10.23;100.00
69751;BME280;57335;52.288;6.056;2023-04-01T07:24:34;99412.41;;;10.26;100.00
69751;BME280;57335;52.288;6.056;2023-04-01T07:27:02;99424.00;;;10.30;100.00
69751;BME280;57335;52.288;6.056;2023-04-01T07:29:29;99418.97;;;10.28;100.00
69751;BME280;57335;52.288;6.056;2023-04-01T07:32:30;99431.97;;;10.35;100.00
69751;BME280;57335;52.288;6.056;2023-04-01T07:35:14;99430.13;;;10.35;100.00
69751;BME280;57335;52.288;6.056;2023-04-01T07:43:36;99437.25;;;10.40;100.00
69751;BME280;57335;52.288;6.056;2023-04-01T07:51:43;99444.13;;;10.80;100.00
69751;BME280;57335;52.288;6.056;2023-04-01T07:54:32;99452.38;;;10.89;100.00
69751;BME280;57335;52.288;6.056;2023-04-01T07:57:21;99459.81;;;10.97;100.00
69751;BME280;57335;52.288;6.056;2023-04-01T08:09:56;99467.75;;;11.24;100.00
69751;BME280;57335;52.288;6.056;2023-04-01T08:12:51;99480.25;;;11.17;100.00
69751;BME280;57335;52.288;6.056;2023-04-01T08:15:25;99487.06;;;11.18;100.00
69751;BME280;57335;52.288;6.056;2023-04-01T08:20:48;99489.97;;;11.16;100.00
69751;BME280;57335;52.288;6.056;2023-04-01T08:23:21;99494.78;;;11.25;100.00
69751;BME280;57335;52.288;6.056;2023-04-01T08:26:06;99496.25;;;11.37;100.00
69751;BME280;57335;52.288;6.056;2023-04-01T08:28:44;99502.69;;;11.52;100.00
69751;BME280;57335;52.288;6.056;2023-04-01T08:31:14;99503.31;;;11.59;100.00
69751;BME280;57335;52.288;6.056;2023-04-01T08:33:44;99509.66;;;11.63;100.00
69751;BME280;57335;52.288;6.056;2023-04-01T08:36:17;99511.19;;;11.59;100.00
69751;BME280;57335;52.288;6.056;2023-04-01T08:38:57;99514.59;;;11.60;100.00
69751;BME280;57335;52.288;6.056;2023-04-01T08:53:33;99538.56;;;11.68;100.00
69751;BME280;57335;52.288;6.056;2023-04-01T08:56:23;99539.13;;;11.70;100.00
69751;BME280;57335;52.288;6.056;2023-04-01T09:01:47;99543.91;;;11.73;100.00
69751;BME280;57335;52.288;6.056;2023-04-01T09:13:02;99559.13;;;11.76;100.00
69751;BME280;57335;52.288;6.056;2023-04-01T09:15:42;99560.19;;;11.75;100.00
69751;BME280;57335;52.288;6.056;2023-04-01T09:18:33;99567.09;;;11.82;100.00
69751;BME280;57335;52.288;6.056;2023-04-01T09:32:56;99570.69;;;11.97;100.00
69751;BME280;57335;52.288;6.056;2023-04-01T09:35:48;99587.72;;;12.17;100.00
69751;BME280;57335;52.288;6.056;2023-04-01T09:38:42;99580.19;;;12.26;100.00
69751;BME280;57335;52.288;6.056;2023-04-01T09:41:22;99594.91;;;12.54;100.00
69751;BME280;57335;52.288;6.056;2023-04-01T09:44:03;99603.91;;;12.95;100.00
69751;BME280;57335;52.288;6.056;2023-04-01T09:46:49;99598.97;;;13.42;100.00
69751;BME280;57335;52.288;6.056;2023-04-01T09:49:59;99596.34;;;14.00;99.18
69751;BME280;57335;52.288;6.056;2023-04-01T09:52:43;99599.81;;;14.31;97.21
69751;BME280;57335;52.288;6.056;2023-04-01T10:01:28;99603.78;;;14.28;94.69
69751;BME280;57335;52.288;6.056;2023-04-01T10:10:10;99623.44;;;13.95;94.42
69751;BME280;57335;52.288;6.056;2023-04-01T10:23:54;99631.44;;;12.06;100.00
69751;BME280;57335;52.288;6.056;2023-04-01T10:29:26;99654.81;;;11.47;100.00
69751;BME280;57335;52.288;6.056;2023-04-01T10:32:23;99654.22;;;11.23;100.00
69751;BME280;57335;52.288;6.056;2023-04-01T10:41:23;99659.03;;;11.14;100.00
69751;BME280;57335;52.288;6.056;2023-04-01T10:49:52;99657.94;;;11.10;100.00
69751;BME280;57335;52.288;6.056;2023-04-01T11:10:57;99688.94;;;11.86;100.00
69751;BME280;57335;52.288;6.056;2023-04-01T11:22:23;99700.28;;;12.08;100.00
69751;BME280;57335;52.288;6.056;2023-04-01T11:30:15;99709.81;;;12.14;100.00
69751;BME280;57335;52.288;6.056;2023-04-01T11:32:51;99714.25;;;11.92;100.00
69751;BME280;57335;52.288;6.056;2023-04-01T11:35:32;99720.28;;;11.75;100.00
69751;BME280;57335;52.288;6.056;2023-04-01T11:46:33;99740.94;;;11.04;100.00
69751;BME280;57335;52.288;6.056;2023-04-01T11:49:26;99746.66;;;11.01;100.00
69751;BME280;57335;52.288;6.056;2023-04-01T11:52:00;99742.59;;;10.93;100.00
69751;BME280;57335;52.288;6.056;2023-04-01T11:55:14;99750.91;;;10.90;100.00
69751;BME280;57335;52.288;6.056;2023-04-01T12:00:02;99760.75;;;11.12;100.00
69751;BME280;57335;52.288;6.056;2023-04-01T12:06:05;99761.63;;;11.34;100.00
69751;BME280;57335;52.288;6.056;2023-04-01T12:08:41;99774.41;;;11.43;100.00
69751;BME280;57335;52.288;6.056;2023-04-01T12:11:26;99775.97;;;11.44;100.00
69751;BME280;57335;52.288;6.056;2023-04-01T12:14:03;99777.25;;;11.41;100.00
69751;BME280;57335;52.288;6.056;2023-04-01T12:24:56;99794.66;;;11.81;100.00
69751;BME280;57335;52.288;6.056;2023-04-01T12:27:38;99794.34;;;11.77;100.00
69751;BME280;57335;52.288;6.056;2023-04-01T12:39:06;99816.13;;;11.78;100.00
69751;BME280;57335;52.288;6.056;2023-04-01T12:42:13;99829.97;;;11.73;100.00
69751;BME280;57335;52.288;6.056;2023-04-01T12:44:54;99828.38;;;11.72;100.00
69751;BME280;57335;52.288;6.056;2023-04-01T12:47:48;99845.25;;;11.60;100.00
69751;BME280;57335;52.288;6.056;2023-04-01T12:50:31;99832.13;;;11.60;100.00
69751;BME280;57335;52.288;6.056;2023-04-01T12:53:19;99834.91;;;11.53;100.00
69751;BME280;57335;52.288;6.056;2023-04-01T12:55:52;99841.28;;;11.57;100.00
69751;BME280;57335;52.288;6.056;2023-04-01T12:58:36;99855.56;;;11.66;100.00
69751;BME280;57335;52.288;6.056;2023-04-01T13:04:39;99862.19;;;11.86;100.00
69751;BME280;57335;52.288;6.056;2023-04-01T13:10:30;99867.19;;;11.99;100.00
69751;BME280;57335;52.288;6.056;2023-04-01T13:16:07;99882.38;;;11.97;100.00
69751;BME280;57335;52.288;6.056;2023-04-01T13:18:54;99895.91;;;11.89;100.00
69751;BME280;57335;52.288;6.056;2023-04-01T13:24:32;99893.75;;;11.57;100.00
69751;BME280;57335;52.288;6.056;2023-04-01T13:32:43;99911.56;;;11.55;100.00
69751;BME280;57335;52.288;6.056;2023-04-01T13:43:51;99928.06;;;11.38;100.00
69751;BME280;57335;52.288;6.056;2023-04-01T13:54:53;99927.13;;;11.45;100.00
69751;BME280;57335;52.288;6.056;2023-04-01T13:57:43;99943.88;;;11.44;100.00
69751;BME280;57335;52.288;6.056;2023-04-01T14:00:35;99958.75;;;11.14;100.00
69751;BME280;57335;52.288;6.056;2023-04-01T14:20:41;99997.28;;;10.31;100.00
69751;BME280;57335;52.288;6.056;2023-04-01T14:23:30;99992.25;;;10.30;100.00
69751;BME280;57335;52.288;6.056;2023-04-01T14:26:33;100002.13;;;10.28;100.00
69751;BME280;57335;52.288;6.056;2023-04-01T14:29:32;100012.38;;;10.29;100.00
69751;BME280;57335;52.288;6.056;2023-04-01T14:32:11;100011.75;;;10.34;100.00
69751;BME280;57335;52.288;6.056;2023-04-01T14:37:40;100015.22;;;10.28;100.00
69751;BME280;57335;52.288;6.056;2023-04-01T14:40:27;100025.44;;;10.17;100.00
69751;BME280;57335;52.288;6.056;2023-04-01T14:43:21;100029.75;;;10.12;100.00
69751;BME280;57335;52.288;6.056;2023-04-01T14:51:16;100041.00;;;10.01;100.00
69751;BME280;57335;52.288;6.056;2023-04-01T14:56:49;100053.16;;;9.95;100.00
69751;BME280;57335;52.288;6.056;2023-04-01T15:01:59;100065.56;;;9.99;100.00
69751;BME280;57335;52.288;6.056;2023-04-01T15:04:57;100074.28;;;9.93;100.00
69751;BME280;57335;52.288;6.056;2023-04-01T15:10:27;100079.53;;;9.93;100.00
69751;BME280;57335;52.288;6.056;2023-04-01T15:13:15;100083.97;;;9.93;100.00
69751;BME280;57335;52.288;6.056;2023-04-01T15:18:46;100091.06;;;10.04;100.00
69751;BME280;57335;52.288;6.056;2023-04-01T15:37:59;100144.25;;;9.86;100.00
69751;BME280;57335;52.288;6.056;2023-04-01T15:57:27;100178.59;;;9.71;100.00
69751;BME280;57335;52.288;6.056;2023-04-01T16:06:28;100200.25;;;9.60;100.00
69751;BME280;57335;52.288;6.056;2023-04-01T16:12:07;100218.47;;;9.48;100.00
69751;BME280;57335;52.288;6.056;2023-04-01T16:17:50;100224.78;;;9.34;100.00
69751;BME280;57335;52.288;6.056;2023-04-01T16:23:20;100232.31;;;9.24;100.00
69751;BME280;57335;52.288;6.056;2023-04-01T16:25:57;100237.72;;;9.29;100.00
69751;BME280;57335;52.288;6.056;2023-04-01T16:28:31;100233.75;;;9.19;100.00
69751;BME280;57335;52.288;6.056;2023-04-01T16:31:14;100245.44;;;9.17;100.00
69751;BME280;57335;52.288;6.056;2023-04-01T16:33:47;100257.88;;;9.22;100.00
69751;BME280;57335;52.288;6.056;2023-04-01T16:36:28;100266.34;;;9.17;100.00
69751;BME280;57335;52.288;6.056;2023-04-01T16:44:52;100276.28;;;9.02;100.00
69751;BME280;57335;52.288;6.056;2023-04-01T16:47:29;100293.59;;;9.03;100.00
69751;BME280;57335;52.288;6.056;2023-04-01T16:55:46;100312.13;;;8.94;100.00
69751;BME280;57335;52.288;6.056;2023-04-01T16:58:22;100318.53;;;8.92;100.00
69751;BME280;57335;52.288;6.056;2023-04-01T17:00:58;100323.00;;;8.85;100.00
69751;BME280;57335;52.288;6.056;2023-04-01T17:03:38;100331.25;;;8.82;100.00
69751;BME280;57335;52.288;6.056;2023-04-01T17:12:25;100356.00;;;8.79;100.00
69751;BME280;57335;52.288;6.056;2023-04-01T17:15:00;100359.66;;;8.65;100.00
69751;BME280;57335;52.288;6.056;2023-04-01T17:17:44;100363.66;;;8.67;100.00
69751;BME280;57335;52.288;6.056;2023-04-01T17:20:32;100369.69;;;8.61;100.00
69751;BME280;57335;52.288;6.056;2023-04-01T17:26:06;100387.59;;;8.51;100.00
69751;BME280;57335;52.288;6.056;2023-04-01T17:31:26;100401.47;;;8.45;100.00
69751;BME280;57335;52.288;6.056;2023-04-01T17:39:53;100427.16;;;8.34;100.00
69751;BME280;57335;52.288;6.056;2023-04-01T17:42:48;100428.38;;;8.32;100.00
69751;BME280;57335;52.288;6.056;2023-04-01T17:45:42;100444.03;;;8.32;100.00
69751;BME280;57335;52.288;6.056;2023-04-01T17:48:41;100450.25;;;8.31;100.00
69751;BME280;57335;52.288;6.056;2023-04-01T17:51:31;100457.25;;;8.24;100.00
69751;BME280;57335;52.288;6.056;2023-04-01T17:56:38;100466.31;;;8.14;100.00
69751;BME280;57335;52.288;6.056;2023-04-01T17:59:26;100472.50;;;8.13;100.00
69751;BME280;57335;52.288;6.056;2023-04-01T18:13:00;100504.25;;;8.10;100.00
69751;BME280;57335;52.288;6.056;2023-04-01T18:18:36;100512.66;;;8.06;100.00
69751;BME280;57335;52.288;6.056;2023-04-01T18:24:11;100528.09;;;8.01;100.00
69751;BME280;57335;52.288;6.056;2023-04-01T18:26:44;100519.44;;;7.87;100.00
69751;BME280;57335;52.288;6.056;2023-04-01T18:29:26;100544.13;;;7.84;100.00
69751;BME280;57335;52.288;6.056;2023-04-01T18:37:54;100572.75;;;7.77;100.00
69751;BME280;57335;52.288;6.056;2023-04-01T18:40:30;100577.53;;;7.67;100.00
69751;BME280;57335;52.288;6.056;2023-04-01T18:43:08;100581.59;;;7.70;100.00
69751;BME280;57335;52.288;6.056;2023-04-01T18:45:43;100581.09;;;7.59;100.00
69751;BME280;57335;52.288;6.056;2023-04-01T18:51:43;100609.94;;;7.51;100.00
69751;BME280;57335;52.288;6.056;2023-04-01T18:56:44;100630.75;;;7.45;100.00
69751;BME280;57335;52.288;6.056;2023-04-01T18:59:20;100623.75;;;7.45;100.00
69751;BME280;57335;52.288;6.056;2023-04-01T19:02:00;100630.00;;;7.51;100.00
69751;BME280;57335;52.288;6.056;2023-04-01T19:04:37;100642.44;;;7.49;100.00
69751;BME280;57335;52.288;6.056;2023-04-01T19:10:00;100645.75;;;7.36;100.00
69751;BME280;57335;52.288;6.056;2023-04-01T19:15:16;100665.56;;;7.30;100.00
69751;BME280;57335;52.288;6.056;2023-04-01T19:18:45;100673.88;;;7.19;100.00
69751;BME280;57335;52.288;6.056;2023-04-01T19:21:33;100667.44;;;7.15;100.00
69751;BME280;57335;52.288;6.056;2023-04-01T19:27:07;100691.91;;;7.14;100.00
69751;BME280;57335;52.288;6.056;2023-04-01T19:32:15;100697.84;;;7.08;100.00
69751;BME280;57335;52.288;6.056;2023-04-01T19:35:07;100714.47;;;7.07;100.00
69751;BME280;57335;52.288;6.056;2023-04-01T19:37:40;100709.88;;;7.09;100.00
69751;BME280;57335;52.288;6.056;2023-04-01T19:43:26;100719.84;;;7.05;100.00
69751;BME280;57335;52.288;6.056;2023-04-01T19:49:07;100737.75;;;7.08;100.00
69751;BME280;57335;52.288;6.056;2023-04-01T19:51:57;100737.84;;;7.00;100.00
69751;BME280;57335;52.288;6.056;2023-04-01T19:54:53;100746.28;;;7.02;100.00
69751;BME280;57335;52.288;6.056;2023-04-01T19:57:42;100746.13;;;7.04;100.00
69751;BME280;57335;52.288;6.056;2023-04-01T20:00:24;100752.94;;;7.05;100.00
69751;BME280;57335;52.288;6.056;2023-04-01T20:03:44;100766.69;;;6.98;100.00
69751;BME280;57335;52.288;6.056;2023-04-01T20:09:26;100783.50;;;6.96;100.00
69751;BME280;57335;52.288;6.056;2023-04-01T20:12:03;100786.56;;;6.85;100.00
69751;BME280;57335;52.288;6.056;2023-04-01T20:14:45;100800.22;;;6.87;100.00